Atlantic - Newfoundland: Past 24 Hour Conditions

 

Stephenville Airport

07:30 PM NST 25 November 2014
This table is a summary of hourly weather conditions for the past 24 hours.
Date / Time
(NST)
Wind(knots) Conditions Visibility(km) Pressure(kPa) Air tempC) Relative humidity(%) Dew pointC)
25 November 2014
19:30 SW 4 Mostly Cloudy 24 100.6 7 88 5
18:30 W 9 Mostly Cloudy 24 100.5 7 88 5
17:30 W 9 Mostly Cloudy 24 100.4 7 89 6
16:30 W 7 Mostly Cloudy 24 100.3 8 90 6
15:30 W 11 gust 16 Mostly Cloudy 24 100.3 8 92 7
14:30 W 16 Partly Cloudy 24 100.2 9 90 8
13:30 W 11 Mostly Cloudy 24 100.2 9 91 7
12:30 W 9 Mist 19 100.2 9 92 8
11:30 W 19 gust 30 Mist 24 100.2 10 90 8
10:30 SW 20 gust 26 Mist 19 100.2 10 93 8
9:30 WSW 11 gust 17 Mist 16 100.1 8 98 8
8:30 WNW 4 Mist 16 100.1 9 95 8
7:30 SW 19 gust 25 Mostly Cloudy 24 100.1 9 94 8
6:30 SW 20 gust 26 Mostly Cloudy 24 100.1 11 91 9
5:30 S 19 gust 25 Light Rainshower 19 100.0 10 91 8
4:30 S 23 gust 29 Mostly Cloudy 24 100.1 10 90 9
3:30 S 28 gust 39 Mostly Cloudy 24 100.2 9 88 8
2:30 S 24 gust 38 Mostly Cloudy 24 100.5 8 86 6
1:30 S 28 gust 40 Light Rain 24 100.6 8 85 5
0:30 ESE 6 gust 23 Light Rain 24 100.8 8 80 5
24 November 2014
23:30 E 11 Light Rain 19 101.2 4 87 2
22:30 ESE 15 Light Rain 19 101.5 4 85 2
21:30 ESE 9 gust 23 Light Rain 16 101.7 3 82 0
20:30 ENE 15 Light Rain 19 101.8 2 82 -1
19:30 E 11 Mostly Cloudy 24 102.1 1 80 -2
 
Map of Atlantic - Newfoundland marine weather areas Southwestern Grand Banks - 44138 Banquereau - 44139 Tail of the Bank - 44140 Nickerson Bank - 44251 Northeast Burgeo Bank - 44255 Blanc-Sablon Airport Cap Whittle Chevery Natashquan Airport Heath Point Miscou Island Grand Étang Ingonish Beach North Mountain St.Paul Island J.A. Douglas McCurdy Sydney Airport Charlottetown Airport East Point North Cape Argentia Bonavista Burgeo Cape Race Corner Brook Daniel's Harbour Englee Ferolle Point La Scie Port aux Basques Rocky Harbour Sagona Island St. Anthony Airport St. John's Int'l Airport St. Lawrence Stephenville Airport Twillingate Winterland Wreckhouse Cartwright Airport Mary's Harbour Grates Cove Pool's Island Marticot Island Long Pond Îles de la Madeleine Airport
Legend: buoyBuoy land stationLand Station